createdAt,value
2018-07-15T00:00:16.467Z,2.90
2018-07-15T00:02:43.856Z,3.23
2018-07-15T00:05:11.196Z,3.17
2018-07-15T00:07:38.532Z,2.90
2018-07-15T00:10:05.896Z,2.60
2018-07-15T00:12:33.270Z,2.93
2018-07-15T00:15:02.224Z,3.20
2018-07-15T00:17:29.602Z,2.93
2018-07-15T00:19:56.980Z,3.20
2018-07-15T00:22:24.383Z,2.60
2018-07-15T00:24:51.778Z,2.97
2018-07-15T00:27:19.147Z,2.50
2018-07-15T00:29:46.501Z,2.93
2018-07-15T00:32:13.846Z,2.87
2018-07-15T00:34:41.200Z,2.47
2018-07-15T00:37:08.597Z,2.80
2018-07-15T00:39:35.955Z,2.57
2018-07-15T00:42:03.307Z,2.90
2018-07-15T00:44:30.683Z,2.97
2018-07-15T00:46:58.035Z,3.07
2018-07-15T00:49:25.407Z,2.90
2018-07-15T00:51:52.764Z,3.00
2018-07-15T00:54:20.117Z,3.63
2018-07-15T00:56:47.505Z,3.20
2018-07-15T00:59:14.871Z,3.00
2018-07-15T01:01:42.252Z,2.80
2018-07-15T01:04:09.607Z,2.93
2018-07-15T01:06:36.956Z,2.60
2018-07-15T01:09:06.809Z,3.13
2018-07-15T01:11:34.155Z,2.60
2018-07-15T01:14:01.518Z,2.87
2018-07-15T01:16:28.873Z,2.60
2018-07-15T01:18:57.652Z,2.40
2018-07-15T01:21:25.018Z,2.77
2018-07-15T01:23:52.377Z,2.97
2018-07-15T01:26:19.749Z,2.37
2018-07-15T01:28:47.367Z,2.67
2018-07-15T01:31:14.727Z,2.70
2018-07-15T01:33:42.083Z,2.57
2018-07-15T01:36:09.444Z,2.43
2018-07-15T01:38:36.838Z,2.33
2018-07-15T01:41:04.183Z,2.83
2018-07-15T01:43:31.534Z,2.70
2018-07-15T01:45:58.937Z,2.67
2018-07-15T01:48:26.296Z,2.80
2018-07-15T01:50:53.693Z,2.37
2018-07-15T01:53:20.999Z,2.70
2018-07-15T01:55:48.363Z,2.70
2018-07-15T01:58:15.715Z,2.47
2018-07-15T02:00:43.124Z,2.60
2018-07-15T02:03:10.500Z,2.60
2018-07-15T02:05:37.847Z,2.17
2018-07-15T02:08:05.211Z,2.17
2018-07-15T02:10:32.587Z,2.53
2018-07-15T02:12:59.932Z,2.40
2018-07-15T02:15:27.276Z,2.30
2018-07-15T02:17:54.619Z,2.27
2018-07-15T02:20:21.960Z,2.33
2018-07-15T02:22:50.232Z,2.30
2018-07-15T02:25:17.599Z,2.37
2018-07-15T02:27:44.961Z,2.60
2018-07-15T02:30:12.298Z,2.60
2018-07-15T02:32:39.658Z,2.50
2018-07-15T02:35:06.986Z,2.10
2018-07-15T02:37:34.407Z,2.50
2018-07-15T02:40:02.356Z,2.80
2018-07-15T02:42:29.728Z,2.60
2018-07-15T02:44:57.120Z,2.60
2018-07-15T02:47:24.464Z,2.50
2018-07-15T02:49:51.851Z,2.50
2018-07-15T02:52:19.253Z,2.63
2018-07-15T02:54:46.620Z,2.53
2018-07-15T02:57:13.985Z,2.50
2018-07-15T02:59:41.342Z,2.67
2018-07-15T03:02:08.701Z,2.57
2018-07-15T03:04:36.074Z,2.63
2018-07-15T03:07:03.431Z,2.40
2018-07-15T03:09:30.772Z,2.87
2018-07-15T03:11:58.100Z,2.80
2018-07-15T03:14:25.547Z,2.70
2018-07-15T03:16:52.804Z,2.73
2018-07-15T03:19:20.443Z,2.50
2018-07-15T03:21:47.831Z,2.60
2018-07-15T03:24:15.188Z,2.87
2018-07-15T03:26:42.518Z,3.03
2018-07-15T03:29:09.890Z,2.77
2018-07-15T03:31:37.248Z,2.97
2018-07-15T03:34:04.632Z,2.47
2018-07-15T03:36:31.959Z,2.87
2018-07-15T03:38:59.294Z,2.87
2018-07-15T03:41:26.675Z,2.90
2018-07-15T03:43:54.082Z,3.03
2018-07-15T03:46:21.423Z,2.83
2018-07-15T03:48:48.762Z,2.97
2018-07-15T03:51:16.103Z,3.20
2018-07-15T03:53:43.476Z,3.07
2018-07-15T03:56:10.833Z,3.03
2018-07-15T03:58:38.219Z,3.03
2018-07-15T04:01:05.572Z,3.00
2018-07-15T04:03:32.946Z,2.70
2018-07-15T04:06:00.352Z,2.70
2018-07-15T04:08:28.033Z,2.80
2018-07-15T04:10:55.417Z,2.70
2018-07-15T04:13:22.768Z,3.10
2018-07-15T04:15:50.120Z,3.00
2018-07-15T04:18:17.475Z,2.93
2018-07-15T04:20:44.826Z,2.87
2018-07-15T04:23:12.171Z,3.40
2018-07-15T04:25:39.512Z,2.90
2018-07-15T04:28:06.926Z,3.03
2018-07-15T04:30:34.275Z,2.63
2018-07-15T04:33:01.628Z,3.17
2018-07-15T04:35:29.028Z,3.10
2018-07-15T04:37:56.663Z,3.00
2018-07-15T04:40:23.994Z,3.20
2018-07-15T04:42:51.353Z,3.20
2018-07-15T04:45:19.395Z,2.97
2018-07-15T04:47:46.983Z,3.23
2018-07-15T04:50:14.405Z,2.93
2018-07-15T04:52:41.739Z,3.30
2018-07-15T04:55:09.108Z,3.50
2018-07-15T04:57:36.512Z,3.33
2018-07-15T05:00:04.156Z,3.70
2018-07-15T05:02:31.503Z,3.63
2018-07-15T05:04:58.868Z,4.00
2018-07-15T05:07:26.239Z,3.50
2018-07-15T05:09:53.619Z,3.60
2018-07-15T05:12:21.129Z,3.50
2018-07-15T05:14:48.428Z,3.60
2018-07-15T05:17:15.799Z,3.67
2018-07-15T05:19:43.316Z,3.67
2018-07-15T05:22:10.769Z,3.63
2018-07-15T05:24:38.292Z,3.93
2018-07-15T05:27:05.643Z,3.50
2018-07-15T05:29:32.973Z,3.60
2018-07-15T05:32:00.470Z,4.13
2018-07-15T05:34:27.903Z,3.53
2018-07-15T05:36:55.258Z,4.03
2018-07-15T05:39:23.140Z,3.67
2018-07-15T05:41:50.486Z,3.77
2018-07-15T05:44:17.863Z,3.80
2018-07-15T05:46:45.192Z,4.07
2018-07-15T05:49:12.523Z,3.97
2018-07-15T05:51:39.874Z,3.90
2018-07-15T05:54:07.250Z,3.83
2018-07-15T05:56:34.692Z,3.53
2018-07-15T05:59:02.051Z,3.93
2018-07-15T06:01:29.391Z,4.10
2018-07-15T06:03:56.759Z,3.77
2018-07-15T06:06:24.166Z,3.73
2018-07-15T06:08:53.714Z,3.60
2018-07-15T06:11:21.074Z,3.50
2018-07-15T06:13:48.439Z,3.93
2018-07-15T06:16:15.783Z,3.63
2018-07-15T06:18:43.122Z,4.10
2018-07-15T06:21:10.479Z,3.70
2018-07-15T06:23:37.880Z,4.30
2018-07-15T06:26:06.231Z,4.43
2018-07-15T06:28:33.594Z,4.30
2018-07-15T06:31:01.106Z,4.27
2018-07-15T06:33:28.422Z,3.80
2018-07-15T06:35:55.812Z,4.47
2018-07-15T06:38:23.176Z,4.07
2018-07-15T06:40:51.151Z,4.70
2018-07-15T06:43:18.520Z,3.80
2018-07-15T06:45:45.883Z,4.23
2018-07-15T06:48:13.225Z,3.87
2018-07-15T06:50:40.579Z,4.07
2018-07-15T06:53:07.939Z,3.93
2018-07-15T06:55:35.311Z,3.97
2018-07-15T06:58:02.695Z,3.90
2018-07-15T07:00:30.043Z,3.80
2018-07-15T07:02:57.383Z,4.03
2018-07-15T07:05:24.735Z,4.40
2018-07-15T07:07:52.356Z,4.13
2018-07-15T07:10:19.664Z,4.00
2018-07-15T07:12:47.055Z,4.40
2018-07-15T07:15:14.402Z,4.17
2018-07-15T07:17:41.736Z,4.20
2018-07-15T07:20:09.728Z,4.03
2018-07-15T07:22:37.176Z,4.30
2018-07-15T07:25:04.751Z,4.40
2018-07-15T07:27:32.117Z,4.60
2018-07-15T07:30:00.369Z,4.20
2018-07-15T07:32:27.780Z,4.80
2018-07-15T07:34:55.146Z,4.83
2018-07-15T07:37:22.524Z,4.30
2018-07-15T07:39:49.923Z,4.10
2018-07-15T07:42:18.312Z,3.83
2018-07-15T07:44:45.687Z,4.53
2018-07-15T07:47:13.057Z,4.30
2018-07-15T07:49:40.407Z,4.00
2018-07-15T07:52:07.997Z,4.30
2018-07-15T07:54:35.349Z,4.10
2018-07-15T07:57:02.705Z,4.80
2018-07-15T07:59:30.042Z,4.10
2018-07-15T08:01:58.538Z,4.07
2018-07-15T08:04:25.904Z,4.03
2018-07-15T08:06:53.275Z,3.83
2018-07-15T08:09:20.680Z,3.67
2018-07-15T08:11:48.159Z,3.20
2018-07-15T08:14:15.529Z,3.50
2018-07-15T08:16:42.931Z,3.70
2018-07-15T08:19:10.280Z,3.80
2018-07-15T08:21:37.686Z,3.50
2018-07-15T08:24:05.195Z,3.07
2018-07-15T08:26:32.728Z,2.97
2018-07-15T08:29:00.065Z,3.43
2018-07-15T08:31:27.419Z,3.07
2018-07-15T08:33:54.774Z,3.23
2018-07-15T08:36:22.127Z,3.17
2018-07-15T08:38:49.475Z,2.43
2018-07-15T08:41:16.817Z,2.50
2018-07-15T08:43:44.177Z,2.67
2018-07-15T08:46:11.677Z,2.77
2018-07-15T08:48:38.895Z,2.80
2018-07-15T08:51:06.808Z,2.40
2018-07-15T08:53:34.171Z,2.53
2018-07-15T08:56:01.529Z,2.40
2018-07-15T08:58:28.892Z,2.23
2018-07-15T09:00:56.226Z,2.60
2018-07-15T09:03:23.604Z,2.43
2018-07-15T09:05:51.047Z,2.00
2018-07-15T09:08:18.403Z,2.40
2018-07-15T09:10:45.766Z,2.57
2018-07-15T09:13:13.116Z,2.83
2018-07-15T09:15:40.451Z,2.27
2018-07-15T09:18:07.846Z,2.73
2018-07-15T09:20:35.198Z,2.30
2018-07-15T09:23:02.676Z,2.70
2018-07-15T09:25:30.098Z,2.80
2018-07-15T09:27:57.503Z,2.13
2018-07-15T09:30:24.831Z,1.97
2018-07-15T09:32:52.835Z,2.03
2018-07-15T09:35:20.225Z,2.30
2018-07-15T09:37:47.701Z,2.00
2018-07-15T09:40:15.059Z,2.00
2018-07-15T09:42:44.533Z,2.90
2018-07-15T09:45:11.915Z,2.60
2018-07-15T09:47:39.289Z,2.53
2018-07-15T09:50:06.987Z,2.37
2018-07-15T09:52:34.360Z,2.37
2018-07-15T09:55:01.723Z,2.10
2018-07-15T09:57:29.099Z,1.80
2018-07-15T09:59:56.455Z,1.77
2018-07-15T10:02:23.823Z,2.03
2018-07-15T10:04:51.206Z,1.90
2018-07-15T10:07:18.548Z,2.10
2018-07-15T10:09:45.905Z,1.90
2018-07-15T10:12:13.243Z,2.10
2018-07-15T10:14:40.615Z,1.80
2018-07-15T10:17:08.052Z,2.13
2018-07-15T10:19:35.394Z,1.80
2018-07-15T10:22:02.803Z,1.50
2018-07-15T10:24:30.200Z,1.80
2018-07-15T10:26:57.576Z,1.97
2018-07-15T10:29:25.053Z,1.87
2018-07-15T10:31:52.415Z,2.00
2018-07-15T10:34:19.812Z,1.70
2018-07-15T10:36:47.208Z,2.00
2018-07-15T10:39:14.699Z,1.90
2018-07-15T10:41:42.095Z,2.00
2018-07-15T10:44:09.764Z,1.60
2018-07-15T10:46:37.355Z,2.07
2018-07-15T10:49:05.448Z,1.93
2018-07-15T10:51:32.975Z,1.93
2018-07-15T10:54:00.464Z,1.67
2018-07-15T10:56:27.839Z,2.10
2018-07-15T10:58:55.204Z,2.20
2018-07-15T11:01:22.591Z,1.70
2018-07-15T11:03:49.965Z,2.10
2018-07-15T11:06:17.358Z,1.90
2018-07-15T11:08:44.706Z,1.60
2018-07-15T11:11:13.222Z,1.93
2018-07-15T11:13:40.582Z,2.23
2018-07-15T11:16:07.973Z,1.90
2018-07-15T11:18:35.319Z,1.90
2018-07-15T11:21:02.656Z,1.90
2018-07-15T11:23:30.013Z,2.03
2018-07-15T11:25:57.428Z,2.10
2018-07-15T11:28:24.744Z,1.80
2018-07-15T11:30:52.287Z,1.80
2018-07-15T11:33:19.655Z,1.63
2018-07-15T11:35:47.005Z,1.60
2018-07-15T11:38:14.507Z,1.90
2018-07-15T11:40:42.663Z,1.53
2018-07-15T11:43:10.020Z,1.50
2018-07-15T11:45:37.379Z,1.40
2018-07-15T11:48:04.797Z,1.63
2018-07-15T11:50:32.102Z,1.40
2018-07-15T11:52:59.464Z,1.80
2018-07-15T11:55:26.851Z,1.97
2018-07-15T11:57:54.882Z,2.03
2018-07-15T12:00:23.100Z,1.90
2018-07-15T12:02:50.444Z,1.50
2018-07-15T12:05:17.779Z,1.67
2018-07-15T12:07:45.820Z,1.50
2018-07-15T12:10:13.193Z,1.70
2018-07-15T12:12:40.532Z,1.60
2018-07-15T12:15:07.891Z,1.40
2018-07-15T12:17:35.261Z,1.60
2018-07-15T12:20:02.636Z,1.50
2018-07-15T12:22:29.981Z,1.50
2018-07-15T12:24:57.348Z,1.80
2018-07-15T12:27:24.725Z,1.90
2018-07-15T12:29:52.095Z,1.60
2018-07-15T12:32:19.456Z,1.53
2018-07-15T12:34:46.806Z,1.60
2018-07-15T12:37:14.171Z,1.90
2018-07-15T12:39:41.515Z,1.40
2018-07-15T12:42:08.864Z,1.43
2018-07-15T12:44:36.234Z,1.60
2018-07-15T12:47:03.594Z,1.70
2018-07-15T12:49:30.939Z,1.50
2018-07-15T12:51:58.308Z,1.70
2018-07-15T12:54:25.652Z,1.37
2018-07-15T12:56:53.029Z,1.13
2018-07-15T12:59:20.411Z,1.20
2018-07-15T13:01:47.763Z,1.23
2018-07-15T13:04:15.105Z,1.20
2018-07-15T13:06:42.497Z,1.43
2018-07-15T13:09:09.829Z,1.50
2018-07-15T13:11:37.175Z,1.50
2018-07-15T13:14:04.648Z,1.30
2018-07-15T13:16:32.228Z,1.57
2018-07-15T13:18:59.576Z,1.53
2018-07-15T13:21:26.932Z,1.30
2018-07-15T13:23:54.264Z,1.30
2018-07-15T13:26:21.611Z,1.30
2018-07-15T13:28:48.983Z,1.30
2018-07-15T13:31:16.317Z,1.17
2018-07-15T13:33:43.685Z,1.40
2018-07-15T13:36:11.052Z,1.20
2018-07-15T13:38:38.402Z,1.30
2018-07-15T13:41:05.823Z,1.50
2018-07-15T13:43:33.215Z,1.30
2018-07-15T13:46:00.565Z,1.20
2018-07-15T13:48:27.915Z,1.40
2018-07-15T13:50:55.271Z,1.10
2018-07-15T13:53:22.632Z,1.30
2018-07-15T13:55:49.992Z,1.27
2018-07-15T13:58:17.348Z,1.20
2018-07-15T14:00:44.711Z,1.40
2018-07-15T14:03:16.401Z,1.20
2018-07-15T14:05:43.776Z,1.50
2018-07-15T14:08:11.128Z,1.10
2018-07-15T14:10:38.508Z,1.47
2018-07-15T14:13:05.873Z,1.20
2018-07-15T14:15:33.255Z,1.57
2018-07-15T14:18:00.615Z,1.20
2018-07-15T14:20:27.971Z,1.50
2018-07-15T14:22:55.336Z,1.40
2018-07-15T14:25:22.731Z,1.37
2018-07-15T14:27:50.116Z,1.40
2018-07-15T14:30:17.503Z,1.27
2018-07-15T14:32:44.859Z,1.30
2018-07-15T14:35:12.269Z,1.30
2018-07-15T14:37:39.636Z,1.27
2018-07-15T14:40:07.159Z,1.40
2018-07-15T14:42:34.494Z,1.10
2018-07-15T14:45:02.796Z,1.30
2018-07-15T14:47:30.200Z,1.30
2018-07-15T14:49:57.560Z,1.30
2018-07-15T14:52:24.910Z,1.40
2018-07-15T14:54:52.306Z,1.33
2018-07-15T14:57:19.659Z,1.33
2018-07-15T14:59:47.055Z,1.87
2018-07-15T15:02:14.386Z,1.50
2018-07-15T15:04:41.739Z,1.67
2018-07-15T15:07:09.104Z,1.40
2018-07-15T15:09:36.462Z,2.23
2018-07-15T15:12:03.788Z,2.13
2018-07-15T15:14:31.174Z,2.40
2018-07-15T15:16:58.499Z,2.20
2018-07-15T15:19:25.843Z,2.50
2018-07-15T15:21:53.166Z,2.63
2018-07-15T15:24:20.509Z,2.33
2018-07-15T15:26:47.856Z,2.37
2018-07-15T15:29:15.210Z,2.80
2018-07-15T15:31:42.562Z,2.60
2018-07-15T15:34:09.899Z,2.70
2018-07-15T15:36:37.253Z,2.47
2018-07-15T15:39:04.951Z,2.27
2018-07-15T15:41:32.319Z,2.30
2018-07-15T15:43:59.755Z,2.63
2018-07-15T15:46:27.479Z,2.53
2018-07-15T15:48:54.790Z,2.30
2018-07-15T15:51:22.127Z,2.37
2018-07-15T15:53:49.516Z,2.27
2018-07-15T15:56:16.875Z,2.63
2018-07-15T15:58:44.217Z,2.53
2018-07-15T16:01:11.573Z,2.53
2018-07-15T16:03:38.930Z,2.50
2018-07-15T16:06:06.295Z,3.07
2018-07-15T16:08:33.632Z,4.33
2018-07-15T16:11:00.974Z,4.67
2018-07-15T16:13:28.354Z,4.37
2018-07-15T16:15:55.692Z,3.20
2018-07-15T16:18:23.293Z,2.63
2018-07-15T16:20:50.642Z,2.30
2018-07-15T16:23:18.082Z,2.30
2018-07-15T16:25:45.382Z,2.60
2018-07-15T16:28:12.796Z,2.53
2018-07-15T16:30:40.127Z,2.27
2018-07-15T16:33:07.467Z,2.90
2018-07-15T16:35:34.823Z,2.37
2018-07-15T16:38:02.227Z,2.50
2018-07-15T16:40:29.551Z,2.70
2018-07-15T16:42:56.907Z,1.97
2018-07-15T16:45:24.275Z,2.40
2018-07-15T16:47:51.641Z,2.43
2018-07-15T16:50:19.016Z,2.47
2018-07-15T16:52:46.408Z,2.20
2018-07-15T16:55:13.741Z,2.33
2018-07-15T16:57:41.110Z,2.77
2018-07-15T17:00:08.460Z,2.23
2018-07-15T17:02:35.808Z,2.10
2018-07-15T17:05:03.167Z,2.47
2018-07-15T17:07:30.498Z,2.43
2018-07-15T17:09:57.847Z,2.60
2018-07-15T17:12:25.222Z,2.70
2018-07-15T17:14:52.577Z,2.37
2018-07-15T17:17:19.928Z,3.37
2018-07-15T17:19:47.420Z,2.10
2018-07-15T17:22:14.778Z,2.57
2018-07-15T17:24:42.115Z,2.13
2018-07-15T17:27:09.499Z,2.23
2018-07-15T17:29:36.863Z,2.20
2018-07-15T17:32:04.228Z,2.30
2018-07-15T17:34:31.594Z,4.43
2018-07-15T17:36:58.940Z,5.47
2018-07-15T17:39:26.275Z,2.90
2018-07-15T17:41:53.627Z,4.27
2018-07-15T17:44:20.956Z,3.10
2018-07-15T17:46:48.339Z,3.47
2018-07-15T17:49:15.703Z,2.60
2018-07-15T17:51:43.063Z,2.60
2018-07-15T17:54:10.630Z,2.70
2018-07-15T17:56:38.066Z,2.43
2018-07-15T17:59:05.388Z,2.20
2018-07-15T18:01:32.780Z,2.33
2018-07-15T18:04:00.139Z,2.23
2018-07-15T18:06:27.538Z,2.20
2018-07-15T18:08:54.838Z,2.37
2018-07-15T18:11:22.191Z,2.67
2018-07-15T18:13:49.535Z,2.27
2018-07-15T18:16:16.982Z,2.17
2018-07-15T18:18:44.246Z,2.40
2018-07-15T18:21:11.608Z,2.37
2018-07-15T18:23:38.991Z,2.33
2018-07-15T18:26:06.350Z,2.43
2018-07-15T18:28:33.689Z,2.17
2018-07-15T18:31:01.105Z,2.13
2018-07-15T18:33:28.515Z,2.23
2018-07-15T18:35:56.080Z,2.40
2018-07-15T18:38:23.828Z,2.57
2018-07-15T18:40:51.232Z,2.50
2018-07-15T18:43:18.918Z,2.23
2018-07-15T18:45:46.351Z,2.70
2018-07-15T18:48:13.974Z,2.47
2018-07-15T18:50:41.385Z,2.30
2018-07-15T18:53:08.758Z,2.90
2018-07-15T18:55:36.113Z,2.40
2018-07-15T18:58:03.500Z,2.20
2018-07-15T19:00:31.170Z,2.37
2018-07-15T19:02:58.554Z,2.10
2018-07-15T19:05:25.899Z,2.07
2018-07-15T19:07:53.272Z,2.07
2018-07-15T19:10:20.631Z,2.10
2018-07-15T19:12:47.992Z,2.60
2018-07-15T19:15:15.417Z,2.37
2018-07-15T19:17:42.734Z,1.97
2018-07-15T19:20:10.107Z,2.30
2018-07-15T19:22:37.475Z,2.17
2018-07-15T19:25:04.863Z,2.33
2018-07-15T19:27:32.221Z,2.50
2018-07-15T19:29:59.564Z,2.50
2018-07-15T19:32:26.909Z,2.20
2018-07-15T19:34:54.257Z,2.40
2018-07-15T19:37:21.599Z,2.40
2018-07-15T19:39:48.947Z,2.20
2018-07-15T19:42:16.344Z,2.60
2018-07-15T19:44:43.948Z,2.30
2018-07-15T19:47:11.316Z,2.50
2018-07-15T19:49:39.727Z,2.40
2018-07-15T19:52:07.080Z,2.63
2018-07-15T19:54:34.449Z,2.47
2018-07-15T19:57:01.804Z,2.40
2018-07-15T19:59:29.170Z,2.53
2018-07-15T20:01:56.525Z,2.63
2018-07-15T20:04:23.883Z,2.40
2018-07-15T20:06:51.351Z,2.60
2018-07-15T20:09:18.703Z,2.40
2018-07-15T20:11:46.079Z,2.53
2018-07-15T20:14:13.447Z,2.43
2018-07-15T20:16:41.710Z,2.93
2018-07-15T20:19:09.087Z,2.40
2018-07-15T20:21:36.519Z,2.70
2018-07-15T20:24:04.218Z,2.60
2018-07-15T20:26:31.575Z,2.70
2018-07-15T20:28:58.948Z,2.37
2018-07-15T20:31:26.308Z,2.60
2018-07-15T20:33:53.664Z,2.33
2018-07-15T20:36:21.016Z,2.03
2018-07-15T20:38:48.368Z,2.23
2018-07-15T20:41:15.727Z,2.60
2018-07-15T20:43:43.084Z,2.80
2018-07-15T20:46:10.416Z,2.57
2018-07-15T20:48:37.780Z,2.50
2018-07-15T20:51:05.157Z,2.37
2018-07-15T20:53:32.500Z,2.73
2018-07-15T20:55:59.874Z,2.37
2018-07-15T20:58:27.238Z,2.23
2018-07-15T21:00:54.670Z,2.00
2018-07-15T21:03:22.032Z,2.40
2018-07-15T21:05:49.435Z,2.53
2018-07-15T21:08:16.798Z,2.50
2018-07-15T21:10:44.159Z,2.80
2018-07-15T21:13:11.527Z,2.90
2018-07-15T21:15:38.903Z,2.30
2018-07-15T21:18:06.322Z,3.10
2018-07-15T21:20:34.722Z,2.30
2018-07-15T21:23:02.103Z,2.30
2018-07-15T21:25:29.499Z,2.40
2018-07-15T21:27:56.845Z,2.60
2018-07-15T21:30:24.208Z,2.33
2018-07-15T21:32:51.564Z,2.40
2018-07-15T21:35:18.923Z,2.23
2018-07-15T21:37:46.308Z,2.40
2018-07-15T21:40:13.647Z,2.37
2018-07-15T21:42:41.011Z,2.27
2018-07-15T21:45:08.375Z,2.20
2018-07-15T21:47:35.719Z,2.30
2018-07-15T21:50:03.126Z,2.37
2018-07-15T21:52:30.488Z,2.20
2018-07-15T21:54:57.822Z,2.47
2018-07-15T21:57:25.173Z,2.67
2018-07-15T21:59:52.538Z,2.30
2018-07-15T22:02:19.895Z,2.20
2018-07-15T22:04:47.671Z,2.70
2018-07-15T22:07:26.667Z,2.17
2018-07-15T22:10:17.120Z,2.10
2018-07-15T22:12:44.501Z,2.43
2018-07-15T22:15:11.855Z,2.50
2018-07-15T22:17:40.381Z,2.17
2018-07-15T22:20:07.727Z,2.10
2018-07-15T22:22:35.070Z,2.27
2018-07-15T22:25:02.413Z,2.30
2018-07-15T22:27:29.777Z,2.40
2018-07-15T22:29:57.107Z,2.40
2018-07-15T22:32:24.441Z,2.03
2018-07-15T22:34:51.782Z,2.20
2018-07-15T22:37:19.113Z,2.10
2018-07-15T22:39:46.459Z,2.20
2018-07-15T22:42:13.970Z,2.40
2018-07-15T22:44:41.319Z,2.03
2018-07-15T22:47:08.664Z,2.40
2018-07-15T22:49:36.023Z,2.13
2018-07-15T22:52:03.352Z,2.03
2018-07-15T22:54:30.687Z,2.20
2018-07-15T22:56:58.076Z,2.50
2018-07-15T22:59:25.437Z,2.70
2018-07-15T23:01:52.828Z,2.37
2018-07-15T23:04:31.156Z,2.60
2018-07-15T23:06:58.664Z,2.70
2018-07-15T23:09:25.988Z,2.60
2018-07-15T23:11:53.368Z,2.93
2018-07-15T23:14:20.771Z,2.80
2018-07-15T23:16:48.169Z,2.47
2018-07-15T23:19:15.507Z,2.37
2018-07-15T23:21:42.852Z,2.60
2018-07-15T23:24:10.201Z,2.60
2018-07-15T23:26:37.536Z,2.67
2018-07-15T23:29:04.890Z,2.60
2018-07-15T23:31:32.615Z,2.50
2018-07-15T23:33:59.964Z,2.50
2018-07-15T23:36:27.296Z,3.10
2018-07-15T23:38:54.628Z,2.40
2018-07-15T23:41:21.971Z,2.93
2018-07-15T23:43:49.339Z,2.67
2018-07-15T23:46:16.692Z,2.77
2018-07-15T23:48:44.031Z,2.93
2018-07-15T23:51:11.381Z,2.87
2018-07-15T23:53:38.714Z,2.80
2018-07-15T23:56:06.135Z,2.60
2018-07-15T23:58:33.494Z,2.90
